Flight Track Log - Related Links

Times and Time Zones

All times are in EDT time to prevent confusion due to time zone crossing. See the QXE2378 flight status page for this flight to view local times or setup timezone preferences in your user account.


Time Position Orientation Groundspeed Altitude Reporting Facility
EDT Latitude Longitude Course Direction KTS MPH feet Rate Location/Type
Sun 12:02:40 PM 47.4417 -122.3100 155° Southeast 143 165 1,300  Level Seattle Center
Sun 12:02:56 PM 47.4314 -122.3031 155° Southeast 139 160 2,200 2,111 Climbing Seattle Center
Sun 12:03:34 PM 47.4028 -122.2792 151° Southeast 196 226 3,200 1,869 Climbing Seattle Center
Sun 12:03:57 PM 47.3950 -122.2453 109° East 226 260 4,100 2,286 Climbing Seattle Center
Sun 12:04:58 PM 47.4233 -122.1514 66° East 254 292 6,400 2,115 Climbing Seattle Center
Sun 12:05:59 PM 47.4592 -122.0456 63° Northeast 285 328 8,400 1,934 Climbing Seattle Center
Sun 12:06:59 PM 47.4992 -121.9258 64° Northeast 301 346 10,300 1,686 Climbing Seattle Center
Sun 12:08:00 PM 47.5414 -121.8003 63° Northeast 337 388 11,800 1,820 Climbing Seattle Center
Sun 12:09:01 PM 47.5633 -121.6697 76° East 323 372 14,000 2,083 Climbing Seattle Center
Sun 12:10:01 PM 47.5594 -121.5389 92° East 316 364 16,000 1,884 Climbing Seattle Center
Sun 12:11:02 PM 47.5561 -121.4097 92° East 315 362 17,800 1,475 Climbing Seattle Center
Sun 12:12:03 PM 47.5553 -121.2753 90° East 318 366 19,000 590 Climbing Seattle Center
Sun 12:13:04 PM 47.5517 -121.1297 92° East 360 414 19,000  Level Seattle Center
Sun 12:14:04 PM 47.5511 -120.9772 90° East 373 429 19,000  Level Seattle Center
Sun 12:15:05 PM 47.5467 -120.8181 92° East 370 426 19,000  Level Seattle Center
Sun 12:16:06 PM 47.5444 -120.6936 91° East 366 421 19,000  Level Seattle Center
Sun 12:17:06 PM 47.5403 -120.5156 92° East 363 418 19,000  Level Seattle Center
Sun 12:18:07 PM 47.5369 -120.3669 92° East 362 417 19,000  Level Seattle Center
Sun 12:19:08 PM 47.5286 -120.2211 95° East 366 421 19,000  Level Seattle Center
Sun 12:20:09 PM 47.5206 -120.0639 94° East 372 428 19,000  Level Seattle Center
Sun 12:21:09 PM 47.5142 -119.9108 93° East 374 430 19,000  Level Seattle Center
Sun 12:22:10 PM 47.5061 -119.7589 94° East 373 429 19,000  Level Seattle Center
Sun 12:23:11 PM 47.4986 -119.6047 94° East 375 432 19,000  Level Seattle Center
Sun 12:24:12 PM 47.4908 -119.4533 94° East 373 429 19,000  Level Seattle Center
Sun 12:25:12 PM 47.4822 -119.2986 95° East 377 434 19,000  Level Seattle Center
Sun 12:26:13 PM 47.4736 -119.1456 95° East 376 433 19,000  Level Seattle Center
Sun 12:27:14 PM 47.4647 -118.9911 95° East 376 433 19,000  Level Seattle Center
Sun 12:28:15 PM 47.4556 -118.8356 95° East 381 438 19,000 -645 Level Seattle Center
Sun 12:29:15 PM 47.4472 -118.6794 94° East 384 442 17,700 -1,339 Descending Seattle Center
Sun 12:30:16 PM 47.4378 -118.5197 95° East 389 448 16,300 -1,426 Descending Seattle Center
Sun 12:31:17 PM 47.4289 -118.3667 95° East 379 436 14,800 -1,475 Descending Seattle Center
Sun 12:32:18 PM 47.4422 -118.2186 82° East 373 429 13,300 -1,636 Descending Seattle Center
Sun 12:33:18 PM 47.4811 -118.0458 72° East 368 423 11,500 -1,587 Descending Seattle Center
Sun 12:34:19 PM 47.5083 -117.9081 74° East 352 405 10,100 -787 Descending Seattle Center
Sun 12:35:20 PM 47.5581 -117.7969 56° Northeast 333 383 9,900 -885 Descending Seattle Center
Sun 12:36:21 PM 47.6222 -117.7103 42° Northeast 312 359 8,300 -1,721 Descending Seattle Center
Sun 12:37:22 PM 47.6836 -117.6314 41° Northeast 294 338 6,400 -1,438 Descending Seattle Center
Sun 12:38:22 PM 47.7283 -117.5500 51° Northeast 254 292 5,400 -1,041 Descending Seattle Center
Sun 12:39:23 PM 47.7047 -117.4858 119° Southeast 176 203 4,300 -836 Descending Seattle Center
Sun 12:40:24 PM 47.6742 -117.4619 152° Southeast 128 147 3,700 -590 Descending Seattle Center
Sun 12:42:00 PM 47.6190 -117.5352 222° Southwest  Level Estimated

Login

Don't have an account? Register now (free) for customized features, flight alerts, and more!